Angels Camp, CA

9:22 PM PST on November 22, 2014 (GMT -0800)
Angels Camp Hills | Change Station
CLOSE
Current Station
Personal Weather Station
Location: Angels Camp, CA
Elevation: 1545 ft
Nearby Weather Stations

Elev 1545 ft 38.07 °N, 120.54 °W | Updated 8 seconds ago

Clear
Clear
51.6 °F
Feels Like 51.6 °F
N
1.0
Wind Variable Wind from NW
Gusts 3.0 mph

Today
High -- | Low -- °F
--% Chance of Precip.
Yesterday
High -- | Low -- °F
Precip. -- in
6:50 AM 4:45 PM
New Moon, 1% visible
Pressure 30.17 in
Visibility 6.0 miles
Clouds Clear
Dew Point 51 °F
Humidity 98%
Rainfall 0.40 in
Snow Depth Not available.
UV 0 out of 12
Pollen .40 out of 12
Air Quality Not available.
Flu Activity Not available.
METAR KO22 230455Z AUTO 33003KT 6SM CLR 08/08 A3017 RMK AO1

More Conditions Fewer Conditions

Pressure 30.17 in
Visibility 6.0 miles
Clouds Clear
Dew Point 51 °F
Humidity 98%
Rainfall 0.40 in
Snow Depth Not available.
UV 0 out of 12
Pollen .40 out of 12
Air Quality Not available.
Flu Activity Not available.
METAR KO22 230455Z AUTO 33003KT 6SM CLR 08/08 A3017 RMK AO1

More Conditions Fewer Conditions

10-Day Weather Forecast

Almanac

Astronomy

Nov. 22, 2014 Rise Set
Actual Time
Civil Twilight
Nautical Twilight
Astronomical Twilight
Moon
Length of Visible Light
Length of Day
Tomorrow will be .
, % of the Moon is Illuminated

Today's Extremes

State Highs State Lows

Community

WunderPhotos

Upload Photos

1,773,016 photos uploaded!

WunderBlogs® & News

Nearby

Air Quality

  Air Quality AQ Index Pollutant
Not available.

Snow Depth

Station Depth Elevation

Earthquake Activity

City Distance Mag. Time & Date
Minimum magnitude displayed is 2.5.

Coastal Water Temperatures

Place Temperature

Nearby Weather Stations